sensor_id;sensor_type;location;lat;lon;timestamp;P1;durP1;ratioP1;P2;durP2;ratioP2
9248;SDS011;4660;41.768;26.198;2023-04-03T00:00:54;4.57;;;3.83;;
9248;SDS011;4660;41.768;26.198;2023-04-03T00:03:19;8.07;;;4.47;;
9248;SDS011;4660;41.768;26.198;2023-04-03T00:05:45;14.47;;;7.37;;
9248;SDS011;4660;41.768;26.198;2023-04-03T00:08:11;6.30;;;4.30;;
9248;SDS011;4660;41.768;26.198;2023-04-03T00:10:37;7.53;;;5.23;;
9248;SDS011;4660;41.768;26.198;2023-04-03T00:13:03;7.40;;;4.90;;
9248;SDS011;4660;41.768;26.198;2023-04-03T00:15:30;6.37;;;4.53;;
9248;SDS011;4660;41.768;26.198;2023-04-03T00:17:57;5.87;;;3.90;;
9248;SDS011;4660;41.768;26.198;2023-04-03T00:20:22;7.90;;;4.33;;
9248;SDS011;4660;41.768;26.198;2023-04-03T00:22:48;8.23;;;3.80;;
9248;SDS011;4660;41.768;26.198;2023-04-03T00:25:13;6.37;;;4.87;;
9248;SDS011;4660;41.768;26.198;2023-04-03T00:27:39;6.47;;;4.20;;
9248;SDS011;4660;41.768;26.198;2023-04-03T00:30:06;11.23;;;4.83;;
9248;SDS011;4660;41.768;26.198;2023-04-03T00:32:33;6.63;;;4.30;;
9248;SDS011;4660;41.768;26.198;2023-04-03T00:34:59;8.83;;;4.57;;
9248;SDS011;4660;41.768;26.198;2023-04-03T00:37:25;6.33;;;3.90;;
9248;SDS011;4660;41.768;26.198;2023-04-03T00:39:50;9.07;;;4.43;;
9248;SDS011;4660;41.768;26.198;2023-04-03T00:42:16;10.27;;;4.70;;
9248;SDS011;4660;41.768;26.198;2023-04-03T00:47:11;23.03;;;13.77;;
9248;SDS011;4660;41.768;26.198;2023-04-03T00:49:38;20.00;;;10.37;;
9248;SDS011;4660;41.768;26.198;2023-04-03T00:52:05;11.07;;;6.70;;
9248;SDS011;4660;41.768;26.198;2023-04-03T00:54:35;9.00;;;5.80;;
9248;SDS011;4660;41.768;26.198;2023-04-03T00:57:02;16.17;;;5.53;;
9248;SDS011;4660;41.768;26.198;2023-04-03T00:59:31;8.13;;;5.17;;
9248;SDS011;4660;41.768;26.198;2023-04-03T01:01:59;4.03;;;3.40;;
9248;SDS011;4660;41.768;26.198;2023-04-03T01:04:29;6.43;;;3.57;;
9248;SDS011;4660;41.768;26.198;2023-04-03T01:07:02;8.67;;;3.30;;
9248;SDS011;4660;41.768;26.198;2023-04-03T01:09:31;6.83;;;3.67;;
9248;SDS011;4660;41.768;26.198;2023-04-03T01:14:54;6.87;;;4.23;;
9248;SDS011;4660;41.768;26.198;2023-04-03T01:17:28;6.97;;;5.00;;
9248;SDS011;4660;41.768;26.198;2023-04-03T01:23:18;8.43;;;4.10;;
9248;SDS011;4660;41.768;26.198;2023-04-03T01:25:54;10.03;;;4.87;;
9248;SDS011;4660;41.768;26.198;2023-04-03T01:28:28;10.73;;;3.97;;
9248;SDS011;4660;41.768;26.198;2023-04-03T01:31:06;7.57;;;5.03;;
9248;SDS011;4660;41.768;26.198;2023-04-03T01:33:43;6.13;;;4.07;;
9248;SDS011;4660;41.768;26.198;2023-04-03T01:36:09;8.57;;;5.43;;
9248;SDS011;4660;41.768;26.198;2023-04-03T01:38:41;7.10;;;4.80;;
9248;SDS011;4660;41.768;26.198;2023-04-03T01:41:07;8.57;;;4.87;;
9248;SDS011;4660;41.768;26.198;2023-04-03T01:43:32;11.93;;;5.10;;
9248;SDS011;4660;41.768;26.198;2023-04-03T01:45:58;8.30;;;4.77;;
9248;SDS011;4660;41.768;26.198;2023-04-03T01:48:23;6.17;;;4.57;;
9248;SDS011;4660;41.768;26.198;2023-04-03T01:50:49;11.73;;;6.50;;
9248;SDS011;4660;41.768;26.198;2023-04-03T01:53:15;10.23;;;6.50;;
9248;SDS011;4660;41.768;26.198;2023-04-03T01:55:40;16.90;;;5.97;;
9248;SDS011;4660;41.768;26.198;2023-04-03T01:58:06;10.57;;;5.07;;
9248;SDS011;4660;41.768;26.198;2023-04-03T02:00:31;6.47;;;4.27;;
9248;SDS011;4660;41.768;26.198;2023-04-03T02:02:57;5.33;;;4.23;;
9248;SDS011;4660;41.768;26.198;2023-04-03T02:05:22;12.43;;;5.20;;
9248;SDS011;4660;41.768;26.198;2023-04-03T02:07:48;8.70;;;4.37;;
9248;SDS011;4660;41.768;26.198;2023-04-03T02:10:13;10.53;;;4.50;;
9248;SDS011;4660;41.768;26.198;2023-04-03T02:12:39;6.03;;;3.40;;
9248;SDS011;4660;41.768;26.198;2023-04-03T02:15:05;5.60;;;3.73;;
9248;SDS011;4660;41.768;26.198;2023-04-03T02:17:31;7.40;;;3.70;;
9248;SDS011;4660;41.768;26.198;2023-04-03T02:19:56;6.77;;;3.60;;
9248;SDS011;4660;41.768;26.198;2023-04-03T02:22:22;5.60;;;3.10;;
9248;SDS011;4660;41.768;26.198;2023-04-03T02:24:47;6.37;;;3.57;;
9248;SDS011;4660;41.768;26.198;2023-04-03T02:27:13;7.50;;;4.43;;
9248;SDS011;4660;41.768;26.198;2023-04-03T02:29:38;6.90;;;4.00;;
9248;SDS011;4660;41.768;26.198;2023-04-03T02:32:04;6.50;;;4.13;;
9248;SDS011;4660;41.768;26.198;2023-04-03T02:34:30;9.57;;;3.63;;
9248;SDS011;4660;41.768;26.198;2023-04-03T02:36:56;6.50;;;3.90;;
9248;SDS011;4660;41.768;26.198;2023-04-03T02:39:21;6.90;;;3.57;;
9248;SDS011;4660;41.768;26.198;2023-04-03T02:41:47;8.00;;;3.50;;
9248;SDS011;4660;41.768;26.198;2023-04-03T02:44:13;9.27;;;4.67;;
9248;SDS011;4660;41.768;26.198;2023-04-03T02:46:39;9.67;;;4.53;;
9248;SDS011;4660;41.768;26.198;2023-04-03T02:49:04;7.47;;;4.57;;
9248;SDS011;4660;41.768;26.198;2023-04-03T02:51:30;7.20;;;5.10;;
9248;SDS011;4660;41.768;26.198;2023-04-03T02:53:56;7.77;;;6.07;;
9248;SDS011;4660;41.768;26.198;2023-04-03T02:56:22;11.03;;;6.10;;
9248;SDS011;4660;41.768;26.198;2023-04-03T02:58:47;9.30;;;6.93;;
9248;SDS011;4660;41.768;26.198;2023-04-03T03:01:14;13.00;;;7.60;;
9248;SDS011;4660;41.768;26.198;2023-04-03T03:03:40;16.33;;;7.27;;
9248;SDS011;4660;41.768;26.198;2023-04-03T03:08:32;7.83;;;6.13;;
9248;SDS011;4660;41.768;26.198;2023-04-03T03:10:58;8.33;;;6.13;;
9248;SDS011;4660;41.768;26.198;2023-04-03T03:13:24;8.93;;;4.83;;
9248;SDS011;4660;41.768;26.198;2023-04-03T03:15:50;7.77;;;5.03;;
9248;SDS011;4660;41.768;26.198;2023-04-03T03:18:16;8.40;;;6.00;;
9248;SDS011;4660;41.768;26.198;2023-04-03T03:20:42;10.37;;;6.07;;
9248;SDS011;4660;41.768;26.198;2023-04-03T03:23:07;7.53;;;5.10;;
9248;SDS011;4660;41.768;26.198;2023-04-03T03:25:33;8.70;;;4.67;;
9248;SDS011;4660;41.768;26.198;2023-04-03T03:28:03;7.00;;;3.97;;
9248;SDS011;4660;41.768;26.198;2023-04-03T03:30:29;11.60;;;5.70;;
9248;SDS011;4660;41.768;26.198;2023-04-03T03:32:54;10.00;;;6.60;;
9248;SDS011;4660;41.768;26.198;2023-04-03T03:35:19;20.83;;;11.10;;
9248;SDS011;4660;41.768;26.198;2023-04-03T03:37:45;10.83;;;7.03;;
9248;SDS011;4660;41.768;26.198;2023-04-03T03:40:11;8.13;;;6.67;;
9248;SDS011;4660;41.768;26.198;2023-04-03T03:42:38;9.33;;;7.00;;
9248;SDS011;4660;41.768;26.198;2023-04-03T03:45:04;7.33;;;5.17;;
9248;SDS011;4660;41.768;26.198;2023-04-03T03:47:30;10.17;;;7.03;;
9248;SDS011;4660;41.768;26.198;2023-04-03T03:49:55;10.10;;;7.97;;
9248;SDS011;4660;41.768;26.198;2023-04-03T03:52:21;10.20;;;7.33;;
9248;SDS011;4660;41.768;26.198;2023-04-03T03:54:46;14.03;;;6.93;;
9248;SDS011;4660;41.768;26.198;2023-04-03T03:57:12;9.87;;;6.60;;
9248;SDS011;4660;41.768;26.198;2023-04-03T03:59:37;11.10;;;6.90;;
9248;SDS011;4660;41.768;26.198;2023-04-03T04:02:05;11.87;;;8.63;;
9248;SDS011;4660;41.768;26.198;2023-04-03T04:04:31;12.20;;;7.77;;
9248;SDS011;4660;41.768;26.198;2023-04-03T04:06:56;12.03;;;8.30;;
9248;SDS011;4660;41.768;26.198;2023-04-03T04:09:22;11.50;;;7.53;;
9248;SDS011;4660;41.768;26.198;2023-04-03T04:11:47;8.73;;;6.97;;
9248;SDS011;4660;41.768;26.198;2023-04-03T04:14:13;13.90;;;6.33;;
9248;SDS011;4660;41.768;26.198;2023-04-03T04:16:39;10.93;;;6.67;;
9248;SDS011;4660;41.768;26.198;2023-04-03T04:19:04;12.37;;;8.80;;
9248;SDS011;4660;41.768;26.198;2023-04-03T04:21:30;9.80;;;7.60;;
9248;SDS011;4660;41.768;26.198;2023-04-03T04:23:55;10.40;;;9.30;;
9248;SDS011;4660;41.768;26.198;2023-04-03T04:26:21;15.57;;;10.43;;
9248;SDS011;4660;41.768;26.198;2023-04-03T04:28:46;14.53;;;7.07;;
9248;SDS011;4660;41.768;26.198;2023-04-03T04:31:12;8.30;;;5.80;;
9248;SDS011;4660;41.768;26.198;2023-04-03T04:33:37;11.23;;;8.57;;
9248;SDS011;4660;41.768;26.198;2023-04-03T04:36:03;7.97;;;4.90;;
9248;SDS011;4660;41.768;26.198;2023-04-03T04:38:29;9.97;;;5.83;;
9248;SDS011;4660;41.768;26.198;2023-04-03T04:40:54;22.67;;;7.27;;
9248;SDS011;4660;41.768;26.198;2023-04-03T04:43:20;9.30;;;5.97;;
9248;SDS011;4660;41.768;26.198;2023-04-03T04:45:46;9.73;;;6.30;;
9248;SDS011;4660;41.768;26.198;2023-04-03T04:48:11;8.27;;;5.73;;
9248;SDS011;4660;41.768;26.198;2023-04-03T04:50:37;8.47;;;5.80;;
9248;SDS011;4660;41.768;26.198;2023-04-03T04:53:02;10.23;;;5.57;;
9248;SDS011;4660;41.768;26.198;2023-04-03T04:55:29;8.17;;;5.30;;
9248;SDS011;4660;41.768;26.198;2023-04-03T04:57:55;10.27;;;6.13;;
9248;SDS011;4660;41.768;26.198;2023-04-03T05:00:20;9.63;;;5.67;;
9248;SDS011;4660;41.768;26.198;2023-04-03T05:02:46;12.13;;;6.53;;
9248;SDS011;4660;41.768;26.198;2023-04-03T05:05:12;10.13;;;7.13;;
9248;SDS011;4660;41.768;26.198;2023-04-03T05:07:37;9.27;;;7.23;;
9248;SDS011;4660;41.768;26.198;2023-04-03T05:10:03;9.73;;;6.40;;
9248;SDS011;4660;41.768;26.198;2023-04-03T05:12:29;8.17;;;6.97;;
9248;SDS011;4660;41.768;26.198;2023-04-03T05:14:55;13.00;;;7.47;;
9248;SDS011;4660;41.768;26.198;2023-04-03T05:17:21;18.10;;;8.67;;
9248;SDS011;4660;41.768;26.198;2023-04-03T05:19:46;12.80;;;8.57;;
9248;SDS011;4660;41.768;26.198;2023-04-03T05:22:12;16.17;;;10.67;;
9248;SDS011;4660;41.768;26.198;2023-04-03T05:24:37;15.87;;;11.23;;
9248;SDS011;4660;41.768;26.198;2023-04-03T05:27:03;19.97;;;13.03;;
9248;SDS011;4660;41.768;26.198;2023-04-03T05:29:29;16.13;;;11.03;;
9248;SDS011;4660;41.768;26.198;2023-04-03T05:31:55;15.97;;;10.87;;
9248;SDS011;4660;41.768;26.198;2023-04-03T05:34:20;19.83;;;10.47;;
9248;SDS011;4660;41.768;26.198;2023-04-03T05:36:46;15.30;;;9.77;;
9248;SDS011;4660;41.768;26.198;2023-04-03T05:39:11;22.93;;;10.93;;
9248;SDS011;4660;41.768;26.198;2023-04-03T05:41:37;107.93;;;45.47;;
9248;SDS011;4660;41.768;26.198;2023-04-03T05:44:03;44.00;;;21.73;;
9248;SDS011;4660;41.768;26.198;2023-04-03T05:46:28;26.10;;;12.70;;
9248;SDS011;4660;41.768;26.198;2023-04-03T05:48:55;23.20;;;13.40;;
9248;SDS011;4660;41.768;26.198;2023-04-03T05:51:25;31.57;;;14.97;;
9248;SDS011;4660;41.768;26.198;2023-04-03T05:53:59;21.77;;;11.07;;
9248;SDS011;4660;41.768;26.198;2023-04-03T05:56:31;12.87;;;8.07;;
9248;SDS011;4660;41.768;26.198;2023-04-03T05:58:56;13.73;;;8.13;;
9248;SDS011;4660;41.768;26.198;2023-04-03T06:01:22;15.00;;;8.83;;
9248;SDS011;4660;41.768;26.198;2023-04-03T06:03:48;26.63;;;13.27;;
9248;SDS011;4660;41.768;26.198;2023-04-03T06:06:14;29.83;;;15.20;;
9248;SDS011;4660;41.768;26.198;2023-04-03T06:08:40;24.43;;;12.80;;
9248;SDS011;4660;41.768;26.198;2023-04-03T06:11:06;25.47;;;12.17;;
9248;SDS011;4660;41.768;26.198;2023-04-03T06:13:33;18.93;;;11.77;;
9248;SDS011;4660;41.768;26.198;2023-04-03T06:16:00;20.37;;;11.80;;
9248;SDS011;4660;41.768;26.198;2023-04-03T06:18:26;15.80;;;10.07;;
9248;SDS011;4660;41.768;26.198;2023-04-03T06:20:51;13.07;;;9.83;;
9248;SDS011;4660;41.768;26.198;2023-04-03T06:23:17;13.87;;;9.10;;
9248;SDS011;4660;41.768;26.198;2023-04-03T06:25:43;12.83;;;9.53;;
9248;SDS011;4660;41.768;26.198;2023-04-03T06:28:09;13.00;;;7.93;;
9248;SDS011;4660;41.768;26.198;2023-04-03T06:30:35;13.10;;;8.30;;
9248;SDS011;4660;41.768;26.198;2023-04-03T06:33:02;17.33;;;7.90;;
9248;SDS011;4660;41.768;26.198;2023-04-03T06:35:28;11.50;;;7.53;;
9248;SDS011;4660;41.768;26.198;2023-04-03T06:37:55;13.40;;;8.23;;
9248;SDS011;4660;41.768;26.198;2023-04-03T06:40:23;12.90;;;6.63;;
9248;SDS011;4660;41.768;26.198;2023-04-03T06:42:50;9.27;;;7.40;;
9248;SDS011;4660;41.768;26.198;2023-04-03T06:45:16;9.13;;;7.13;;
9248;SDS011;4660;41.768;26.198;2023-04-03T06:47:42;8.97;;;7.37;;
9248;SDS011;4660;41.768;26.198;2023-04-03T06:50:09;13.70;;;8.33;;
9248;SDS011;4660;41.768;26.198;2023-04-03T06:52:37;12.53;;;9.20;;
9248;SDS011;4660;41.768;26.198;2023-04-03T06:55:03;12.80;;;8.07;;
9248;SDS011;4660;41.768;26.198;2023-04-03T06:57:29;20.43;;;9.97;;
9248;SDS011;4660;41.768;26.198;2023-04-03T06:59:55;11.27;;;8.70;;
9248;SDS011;4660;41.768;26.198;2023-04-03T07:02:21;18.97;;;11.17;;
9248;SDS011;4660;41.768;26.198;2023-04-03T07:04:47;14.60;;;10.57;;
9248;SDS011;4660;41.768;26.198;2023-04-03T07:07:13;17.23;;;12.80;;
9248;SDS011;4660;41.768;26.198;2023-04-03T07:09:38;16.10;;;8.80;;
9248;SDS011;4660;41.768;26.198;2023-04-03T07:12:05;17.73;;;8.13;;
9248;SDS011;4660;41.768;26.198;2023-04-03T07:14:31;16.43;;;8.60;;
9248;SDS011;4660;41.768;26.198;2023-04-03T07:16:56;17.70;;;9.83;;
9248;SDS011;4660;41.768;26.198;2023-04-03T07:19:22;17.23;;;8.97;;
9248;SDS011;4660;41.768;26.198;2023-04-03T07:21:49;19.07;;;9.00;;
9248;SDS011;4660;41.768;26.198;2023-04-03T07:24:15;14.17;;;7.73;;
9248;SDS011;4660;41.768;26.198;2023-04-03T07:26:41;18.30;;;7.93;;
9248;SDS011;4660;41.768;26.198;2023-04-03T07:29:07;13.60;;;7.73;;
9248;SDS011;4660;41.768;26.198;2023-04-03T07:31:32;20.87;;;12.13;;
9248;SDS011;4660;41.768;26.198;2023-04-03T07:33:58;18.43;;;10.47;;
9248;SDS011;4660;41.768;26.198;2023-04-03T07:36:24;15.07;;;10.10;;
9248;SDS011;4660;41.768;26.198;2023-04-03T07:38:51;15.50;;;10.17;;
9248;SDS011;4660;41.768;26.198;2023-04-03T07:41:18;17.43;;;10.40;;
9248;SDS011;4660;41.768;26.198;2023-04-03T07:43:45;22.60;;;12.83;;
9248;SDS011;4660;41.768;26.198;2023-04-03T07:46:13;19.90;;;10.77;;
9248;SDS011;4660;41.768;26.198;2023-04-03T07:48:38;24.80;;;11.80;;
9248;SDS011;4660;41.768;26.198;2023-04-03T07:51:04;22.23;;;11.77;;
9248;SDS011;4660;41.768;26.198;2023-04-03T07:53:30;20.70;;;10.73;;
9248;SDS011;4660;41.768;26.198;2023-04-03T07:55:57;26.77;;;13.97;;
9248;SDS011;4660;41.768;26.198;2023-04-03T07:58:23;26.23;;;13.97;;
9248;SDS011;4660;41.768;26.198;2023-04-03T08:00:49;18.67;;;12.93;;
9248;SDS011;4660;41.768;26.198;2023-04-03T08:03:15;23.87;;;14.63;;
9248;SDS011;4660;41.768;26.198;2023-04-03T08:05:46;24.87;;;17.30;;
9248;SDS011;4660;41.768;26.198;2023-04-03T08:08:14;29.13;;;15.00;;
9248;SDS011;4660;41.768;26.198;2023-04-03T08:10:41;25.73;;;13.03;;
9248;SDS011;4660;41.768;26.198;2023-04-03T08:13:08;21.10;;;12.77;;
9248;SDS011;4660;41.768;26.198;2023-04-03T08:15:34;22.50;;;13.00;;
9248;SDS011;4660;41.768;26.198;2023-04-03T08:18:00;24.87;;;13.33;;
9248;SDS011;4660;41.768;26.198;2023-04-03T08:20:26;32.03;;;14.67;;
9248;SDS011;4660;41.768;26.198;2023-04-03T08:22:53;32.53;;;14.77;;
9248;SDS011;4660;41.768;26.198;2023-04-03T08:25:18;26.90;;;15.10;;
9248;SDS011;4660;41.768;26.198;2023-04-03T08:27:47;28.30;;;14.50;;
9248;SDS011;4660;41.768;26.198;2023-04-03T08:30:12;27.37;;;14.47;;
9248;SDS011;4660;41.768;26.198;2023-04-03T08:32:39;23.80;;;14.17;;
9248;SDS011;4660;41.768;26.198;2023-04-03T08:35:07;28.10;;;13.73;;
9248;SDS011;4660;41.768;26.198;2023-04-03T08:37:37;27.37;;;14.60;;
9248;SDS011;4660;41.768;26.198;2023-04-03T08:40:05;34.33;;;15.33;;
9248;SDS011;4660;41.768;26.198;2023-04-03T08:42:36;24.97;;;15.57;;
9248;SDS011;4660;41.768;26.198;2023-04-03T08:45:16;24.43;;;15.67;;
9248;SDS011;4660;41.768;26.198;2023-04-03T08:47:57;32.60;;;17.77;;
9248;SDS011;4660;41.768;26.198;2023-04-03T08:50:37;25.73;;;16.23;;
9248;SDS011;4660;41.768;26.198;2023-04-03T08:53:05;26.87;;;15.83;;
9248;SDS011;4660;41.768;26.198;2023-04-03T08:55:48;26.93;;;16.23;;
9248;SDS011;4660;41.768;26.198;2023-04-03T08:58:16;31.63;;;19.13;;
9248;SDS011;4660;41.768;26.198;2023-04-03T09:00:45;32.50;;;18.03;;
9248;SDS011;4660;41.768;26.198;2023-04-03T09:03:13;27.70;;;17.03;;
9248;SDS011;4660;41.768;26.198;2023-04-03T09:11:12;36.13;;;22.20;;
9248;SDS011;4660;41.768;26.198;2023-04-03T09:27:53;37.27;;;19.43;;
9248;SDS011;4660;41.768;26.198;2023-04-03T09:30:24;27.10;;;16.83;;
9248;SDS011;4660;41.768;26.198;2023-04-03T09:32:52;33.77;;;19.63;;
9248;SDS011;4660;41.768;26.198;2023-04-03T09:35:25;39.70;;;21.57;;
9248;SDS011;4660;41.768;26.198;2023-04-03T09:37:58;34.13;;;20.13;;
9248;SDS011;4660;41.768;26.198;2023-04-03T09:42:50;32.90;;;20.10;;
9248;SDS011;4660;41.768;26.198;2023-04-03T09:45:27;35.97;;;20.80;;
9248;SDS011;4660;41.768;26.198;2023-04-03T09:48:15;42.00;;;22.33;;
9248;SDS011;4660;41.768;26.198;2023-04-03T09:58:43;41.40;;;23.53;;
9248;SDS011;4660;41.768;26.198;2023-04-03T10:04:02;42.70;;;23.70;;
9248;SDS011;4660;41.768;26.198;2023-04-03T10:06:42;39.13;;;23.07;;
9248;SDS011;4660;41.768;26.198;2023-04-03T10:09:31;41.10;;;21.30;;
9248;SDS011;4660;41.768;26.198;2023-04-03T10:14:27;40.87;;;22.90;;
9248;SDS011;4660;41.768;26.198;2023-04-03T10:19:59;37.23;;;22.07;;
9248;SDS011;4660;41.768;26.198;2023-04-03T10:28:22;40.73;;;21.97;;
9248;SDS011;4660;41.768;26.198;2023-04-03T10:31:07;41.90;;;21.43;;
9248;SDS011;4660;41.768;26.198;2023-04-03T10:33:59;37.23;;;22.23;;
9248;SDS011;4660;41.768;26.198;2023-04-03T10:39:14;48.50;;;25.23;;
9248;SDS011;4660;41.768;26.198;2023-04-03T10:47:02;44.33;;;25.53;;
9248;SDS011;4660;41.768;26.198;2023-04-03T10:57:54;40.13;;;22.67;;
9248;SDS011;4660;41.768;26.198;2023-04-03T11:00:25;39.47;;;23.03;;
9248;SDS011;4660;41.768;26.198;2023-04-03T11:03:14;37.30;;;23.17;;
9248;SDS011;4660;41.768;26.198;2023-04-03T11:05:51;33.70;;;20.33;;
9248;SDS011;4660;41.768;26.198;2023-04-03T11:10:54;30.87;;;18.27;;
9248;SDS011;4660;41.768;26.198;2023-04-03T11:13:35;25.50;;;16.52;;
9248;SDS011;4660;41.768;26.198;2023-04-03T11:16:06;19.05;;;13.18;;
9248;SDS011;4660;41.768;26.198;2023-04-03T11:18:39;22.58;;;12.35;;
9248;SDS011;4660;41.768;26.198;2023-04-03T11:21:28;16.88;;;8.52;;
9248;SDS011;4660;41.768;26.198;2023-04-03T11:23:59;12.80;;;9.07;;
9248;SDS011;4660;41.768;26.198;2023-04-03T11:26:35;13.00;;;9.27;;
9248;SDS011;4660;41.768;26.198;2023-04-03T11:29:07;14.85;;;8.73;;
9248;SDS011;4660;41.768;26.198;2023-04-03T11:34:39;12.70;;;9.20;;
9248;SDS011;4660;41.768;26.198;2023-04-03T11:39:59;16.60;;;9.17;;
9248;SDS011;4660;41.768;26.198;2023-04-03T11:42:33;10.67;;;8.20;;
9248;SDS011;4660;41.768;26.198;2023-04-03T11:50:57;12.13;;;7.70;;
9248;SDS011;4660;41.768;26.198;2023-04-03T11:53:30;11.88;;;7.53;;
9248;SDS011;4660;41.768;26.198;2023-04-03T11:56:00;13.73;;;8.40;;
9248;SDS011;4660;41.768;26.198;2023-04-03T12:04:11;9.98;;;6.95;;
9248;SDS011;4660;41.768;26.198;2023-04-03T12:06:43;9.38;;;7.07;;
9248;SDS011;4660;41.768;26.198;2023-04-03T12:14:52;9.77;;;6.17;;
9248;SDS011;4660;41.768;26.198;2023-04-03T12:17:27;13.93;;;6.77;;
9248;SDS011;4660;41.768;26.198;2023-04-03T12:19:55;10.23;;;6.15;;
9248;SDS011;4660;41.768;26.198;2023-04-03T12:22:21;10.85;;;6.07;;
9248;SDS011;4660;41.768;26.198;2023-04-03T12:24:48;14.52;;;6.20;;
9248;SDS011;4660;41.768;26.198;2023-04-03T12:32:35;8.77;;;4.43;;
9248;SDS011;4660;41.768;26.198;2023-04-03T12:44:07;8.63;;;4.45;;
9248;SDS011;4660;41.768;26.198;2023-04-03T12:46:58;8.35;;;5.47;;
9248;SDS011;4660;41.768;26.198;2023-04-03T12:49:35;14.65;;;7.55;;
9248;SDS011;4660;41.768;26.198;2023-04-03T12:52:05;12.18;;;5.30;;
9248;SDS011;4660;41.768;26.198;2023-04-03T12:54:43;9.75;;;4.68;;
9248;SDS011;4660;41.768;26.198;2023-04-03T12:57:24;11.82;;;5.40;;
9248;SDS011;4660;41.768;26.198;2023-04-03T12:59:52;9.95;;;5.25;;
9248;SDS011;4660;41.768;26.198;2023-04-03T13:02:31;12.98;;;4.80;;
9248;SDS011;4660;41.768;26.198;2023-04-03T13:05:08;10.93;;;4.45;;
9248;SDS011;4660;41.768;26.198;2023-04-03T13:07:38;12.00;;;4.68;;
9248;SDS011;4660;41.768;26.198;2023-04-03T13:12:31;12.60;;;5.10;;
9248;SDS011;4660;41.768;26.198;2023-04-03T13:15:10;10.95;;;5.88;;
9248;SDS011;4660;41.768;26.198;2023-04-03T13:17:39;12.43;;;6.45;;
9248;SDS011;4660;41.768;26.198;2023-04-03T13:20:10;10.03;;;5.87;;
9248;SDS011;4660;41.768;26.198;2023-04-03T13:22:50;8.60;;;4.37;;
9248;SDS011;4660;41.768;26.198;2023-04-03T13:25:20;10.40;;;4.60;;
9248;SDS011;4660;41.768;26.198;2023-04-03T13:27:47;10.35;;;5.22;;
9248;SDS011;4660;41.768;26.198;2023-04-03T13:30:21;9.25;;;5.30;;
9248;SDS011;4660;41.768;26.198;2023-04-03T13:32:50;10.73;;;4.20;;
9248;SDS011;4660;41.768;26.198;2023-04-03T13:37:56;5.28;;;3.67;;
9248;SDS011;4660;41.768;26.198;2023-04-03T13:40:24;10.93;;;4.50;;
9248;SDS011;4660;41.768;26.198;2023-04-03T13:43:05;7.68;;;4.30;;
9248;SDS011;4660;41.768;26.198;2023-04-03T13:45:53;9.45;;;5.93;;
9248;SDS011;4660;41.768;26.198;2023-04-03T13:48:34;9.55;;;5.05;;
9248;SDS011;4660;41.768;26.198;2023-04-03T13:53:40;11.25;;;4.70;;
9248;SDS011;4660;41.768;26.198;2023-04-03T13:56:13;8.40;;;4.55;;
9248;SDS011;4660;41.768;26.198;2023-04-03T13:58:56;8.40;;;4.25;;
9248;SDS011;4660;41.768;26.198;2023-04-03T14:04:29;6.15;;;3.67;;
9248;SDS011;4660;41.768;26.198;2023-04-03T14:06:55;10.68;;;3.75;;
9248;SDS011;4660;41.768;26.198;2023-04-03T14:09:22;7.03;;;3.67;;
9248;SDS011;4660;41.768;26.198;2023-04-03T14:11:49;12.23;;;4.63;;
9248;SDS011;4660;41.768;26.198;2023-04-03T14:14:25;8.55;;;5.10;;
9248;SDS011;4660;41.768;26.198;2023-04-03T14:16:57;10.88;;;4.28;;
9248;SDS011;4660;41.768;26.198;2023-04-03T14:19:26;10.05;;;4.78;;
9248;SDS011;4660;41.768;26.198;2023-04-03T14:21:55;13.82;;;6.30;;
9248;SDS011;4660;41.768;26.198;2023-04-03T14:24:21;12.68;;;8.32;;
9248;SDS011;4660;41.768;26.198;2023-04-03T14:26:48;13.25;;;6.57;;
9248;SDS011;4660;41.768;26.198;2023-04-03T14:29:16;9.93;;;5.45;;
9248;SDS011;4660;41.768;26.198;2023-04-03T14:31:42;8.18;;;5.45;;
9248;SDS011;4660;41.768;26.198;2023-04-03T14:34:10;8.50;;;6.05;;
9248;SDS011;4660;41.768;26.198;2023-04-03T14:36:37;13.80;;;7.75;;
9248;SDS011;4660;41.768;26.198;2023-04-03T14:39:04;25.23;;;18.97;;
9248;SDS011;4660;41.768;26.198;2023-04-03T14:41:31;11.02;;;6.28;;
9248;SDS011;4660;41.768;26.198;2023-04-03T14:43:57;12.32;;;5.68;;
9248;SDS011;4660;41.768;26.198;2023-04-03T14:48:56;6.38;;;4.50;;
9248;SDS011;4660;41.768;26.198;2023-04-03T14:51:23;10.13;;;5.00;;
9248;SDS011;4660;41.768;26.198;2023-04-03T14:53:49;9.70;;;5.28;;
9248;SDS011;4660;41.768;26.198;2023-04-03T14:56:19;7.70;;;4.22;;
9248;SDS011;4660;41.768;26.198;2023-04-03T14:58:55;8.57;;;5.03;;
9248;SDS011;4660;41.768;26.198;2023-04-03T15:01:24;9.38;;;6.07;;
9248;SDS011;4660;41.768;26.198;2023-04-03T15:03:51;10.90;;;5.43;;
9248;SDS011;4660;41.768;26.198;2023-04-03T15:06:16;10.05;;;5.05;;
9248;SDS011;4660;41.768;26.198;2023-04-03T15:08:43;12.60;;;6.47;;
9248;SDS011;4660;41.768;26.198;2023-04-03T15:11:10;10.00;;;6.38;;
9248;SDS011;4660;41.768;26.198;2023-04-03T15:13:37;10.27;;;7.30;;
9248;SDS011;4660;41.768;26.198;2023-04-03T15:16:04;10.90;;;6.30;;
9248;SDS011;4660;41.768;26.198;2023-04-03T15:18:32;12.87;;;6.80;;
9248;SDS011;4660;41.768;26.198;2023-04-03T15:21:04;15.70;;;6.78;;
9248;SDS011;4660;41.768;26.198;2023-04-03T15:23:30;13.35;;;6.75;;
9248;SDS011;4660;41.768;26.198;2023-04-03T15:25:55;10.70;;;6.07;;
9248;SDS011;4660;41.768;26.198;2023-04-03T15:28:23;13.20;;;6.70;;
9248;SDS011;4660;41.768;26.198;2023-04-03T15:31:05;12.53;;;6.40;;
9248;SDS011;4660;41.768;26.198;2023-04-03T15:33:32;9.93;;;5.77;;
9248;SDS011;4660;41.768;26.198;2023-04-03T15:35:59;11.27;;;6.73;;
9248;SDS011;4660;41.768;26.198;2023-04-03T15:38:25;14.17;;;7.50;;
9248;SDS011;4660;41.768;26.198;2023-04-03T15:40:50;12.67;;;6.40;;
9248;SDS011;4660;41.768;26.198;2023-04-03T15:43:16;14.03;;;6.17;;
9248;SDS011;4660;41.768;26.198;2023-04-03T15:45:43;12.23;;;5.87;;
9248;SDS011;4660;41.768;26.198;2023-04-03T15:48:10;11.25;;;4.85;;
9248;SDS011;4660;41.768;26.198;2023-04-03T15:50:37;9.43;;;5.18;;
9248;SDS011;4660;41.768;26.198;2023-04-03T15:53:03;10.30;;;5.83;;
9248;SDS011;4660;41.768;26.198;2023-04-03T15:55:30;12.17;;;5.93;;
9248;SDS011;4660;41.768;26.198;2023-04-03T15:57:58;11.13;;;5.05;;
9248;SDS011;4660;41.768;26.198;2023-04-03T16:00:24;12.95;;;6.07;;
9248;SDS011;4660;41.768;26.198;2023-04-03T16:02:55;19.77;;;6.57;;
9248;SDS011;4660;41.768;26.198;2023-04-03T16:05:24;12.70;;;5.50;;
9248;SDS011;4660;41.768;26.198;2023-04-03T16:07:50;11.68;;;6.28;;
9248;SDS011;4660;41.768;26.198;2023-04-03T16:10:17;6.47;;;4.05;;
9248;SDS011;4660;41.768;26.198;2023-04-03T16:12:43;7.13;;;3.67;;
9248;SDS011;4660;41.768;26.198;2023-04-03T16:15:10;8.30;;;3.30;;
9248;SDS011;4660;41.768;26.198;2023-04-03T16:17:36;7.35;;;3.08;;
9248;SDS011;4660;41.768;26.198;2023-04-03T16:20:03;8.30;;;4.20;;
9248;SDS011;4660;41.768;26.198;2023-04-03T16:22:30;6.85;;;3.45;;
9248;SDS011;4660;41.768;26.198;2023-04-03T16:24:56;6.55;;;3.85;;
9248;SDS011;4660;41.768;26.198;2023-04-03T16:27:22;10.07;;;5.13;;
9248;SDS011;4660;41.768;26.198;2023-04-03T16:29:53;8.93;;;3.83;;
9248;SDS011;4660;41.768;26.198;2023-04-03T16:32:19;5.33;;;3.33;;
9248;SDS011;4660;41.768;26.198;2023-04-03T16:34:45;8.03;;;3.90;;
9248;SDS011;4660;41.768;26.198;2023-04-03T16:37:11;7.53;;;3.80;;
9248;SDS011;4660;41.768;26.198;2023-04-03T16:39:36;7.37;;;3.47;;
9248;SDS011;4660;41.768;26.198;2023-04-03T16:42:02;9.47;;;4.10;;
9248;SDS011;4660;41.768;26.198;2023-04-03T16:44:28;11.07;;;5.53;;
9248;SDS011;4660;41.768;26.198;2023-04-03T16:46:56;10.10;;;4.57;;
9248;SDS011;4660;41.768;26.198;2023-04-03T16:49:21;10.50;;;5.20;;
9248;SDS011;4660;41.768;26.198;2023-04-03T16:51:48;7.07;;;4.90;;
9248;SDS011;4660;41.768;26.198;2023-04-03T16:54:14;7.33;;;4.13;;
9248;SDS011;4660;41.768;26.198;2023-04-03T16:56:39;7.20;;;3.50;;
9248;SDS011;4660;41.768;26.198;2023-04-03T16:59:05;4.13;;;3.23;;